KQA655 HKKI-HKJK
Flight info
| Callsign | KQA655 |
|---|---|
| Flight time | N/A |
| Altitude | 23000 |
| Route | IBSUL1B IBSUL DCT NAKAT NAKAT4A |
| Aircraft | B738/M-SDE2E3FGHIRWXY/LB1 |
Departure
| Time | 2026-04-26 16:29 |
|---|---|
| Airport | Kisumu International Airport (HKKI) |
Arrival
| Time | N/A |
|---|---|
| Airport | Jomo Kenyatta International Airport (HKJK) |
| Time | Latitude | Longitude | Altitude | Speed | Heading |
|---|---|---|---|---|---|
| 2026-04-26 16:14 | -0.08336 | 34.72944 | 3808 ft | 0 kts | 60° |
| 2026-04-26 16:26 | -0.08335 | 34.72944 | 3808 ft | 0 kts | 60° |
| 2026-04-26 16:26 | -0.08326 | 34.72963 | 3809 ft | 8 kts | 66° |
| 2026-04-26 16:26 | -0.08386 | 34.73032 | 3805 ft | 9 kts | 152° |
| 2026-04-26 16:26 | -0.08408 | 34.73044 | 3804 ft | 0 kts | 152° |
| 2026-04-26 16:27 | -0.08420 | 34.73050 | 3804 ft | 3 kts | 152° |
| 2026-04-26 16:27 | -0.08445 | 34.73064 | 3802 ft | 5 kts | 152° |
| 2026-04-26 16:27 | -0.08483 | 34.73073 | 3801 ft | 5 kts | 197° |
| 2026-04-26 16:27 | -0.08522 | 34.73027 | 3800 ft | 17 kts | 241° |
| 2026-04-26 16:28 | -0.08695 | 34.72702 | 3791 ft | 84 kts | 242° |
| 2026-04-26 16:28 | -0.09074 | 34.71993 | 3765 ft | 138 kts | 241° |
| 2026-04-26 16:28 | -0.09594 | 34.71009 | 3823 ft | 170 kts | 244° |
| 2026-04-26 16:28 | -0.10177 | 34.69864 | 4122 ft | 184 kts | 243° |
| 2026-04-26 16:29 | -0.10872 | 34.68681 | 4282 ft | 209 kts | 233° |
| 2026-04-26 16:29 | -0.12073 | 34.67670 | 4461 ft | 227 kts | 210° |
| 2026-04-26 16:29 | -0.13600 | 34.67131 | 5029 ft | 230 kts | 191° |
| 2026-04-26 16:29 | -0.15237 | 34.67075 | 5687 ft | 234 kts | 174° |
| 2026-04-26 16:30 | -0.16858 | 34.67536 | 6321 ft | 246 kts | 154° |
| 2026-04-26 16:30 | -0.18310 | 34.68578 | 7012 ft | 258 kts | 141° |
| 2026-04-26 16:30 | -0.19711 | 34.69759 | 7810 ft | 267 kts | 142° |
| 2026-04-26 16:30 | -0.21222 | 34.70987 | 8528 ft | 279 kts | 142° |
| 2026-04-26 16:31 | -0.22767 | 34.72254 | 9442 ft | 284 kts | 141° |
| 2026-04-26 16:31 | -0.24330 | 34.73539 | 10321 ft | 289 kts | 141° |
| 2026-04-26 16:31 | -0.25970 | 34.74886 | 10783 ft | 308 kts | 140° |
| 2026-04-26 16:31 | -0.27677 | 34.76291 | 11089 ft | 320 kts | 140° |
| 2026-04-26 16:32 | -0.29433 | 34.77734 | 11076 ft | 316 kts | 140° |
| 2026-04-26 16:32 | -0.30606 | 34.78698 | 11074 ft | 315 kts | 140° |
| 2026-04-26 16:32 | -0.32905 | 34.80589 | 11074 ft | 315 kts | 140° |
| 2026-04-26 16:32 | -0.34644 | 34.82018 | 11074 ft | 315 kts | 140° |
| 2026-04-26 16:33 | -0.36380 | 34.83445 | 11086 ft | 322 kts | 140° |
| 2026-04-26 16:33 | -0.38172 | 34.84918 | 11719 ft | 331 kts | 140° |
| 2026-04-26 16:33 | -0.39986 | 34.86409 | 12725 ft | 330 kts | 139° |
| 2026-04-26 16:33 | -0.41800 | 34.87902 | 13539 ft | 333 kts | 139° |
| 2026-04-26 16:34 | -0.43580 | 34.89436 | 14305 ft | 336 kts | 133° |
| 2026-04-26 16:34 | -0.45156 | 34.91240 | 15054 ft | 339 kts | 127° |
| 2026-04-26 16:34 | -0.46713 | 34.93135 | 15766 ft | 345 kts | 128° |
| 2026-04-26 16:34 | -0.48297 | 34.95000 | 16438 ft | 350 kts | 129° |
| 2026-04-26 16:35 | -0.49924 | 34.96910 | 17080 ft | 355 kts | 128° |
| 2026-04-26 16:35 | -0.51567 | 34.98848 | 17721 ft | 360 kts | 128° |
| 2026-04-26 16:35 | -0.53220 | 35.00808 | 18346 ft | 365 kts | 128° |
| 2026-04-26 16:35 | -0.54909 | 35.02808 | 18958 ft | 370 kts | 128° |
| 2026-04-26 16:36 | -0.56605 | 35.04814 | 19555 ft | 374 kts | 129° |
| 2026-04-26 16:36 | -0.58340 | 35.06867 | 20165 ft | 378 kts | 129° |
| 2026-04-26 16:36 | -0.60077 | 35.08922 | 20743 ft | 382 kts | 129° |
| 2026-04-26 16:36 | -0.61827 | 35.10992 | 21305 ft | 386 kts | 129° |
| 2026-04-26 16:37 | -0.63619 | 35.13113 | 21856 ft | 390 kts | 129° |
| 2026-04-26 16:37 | -0.65415 | 35.15237 | 22379 ft | 394 kts | 129° |
| 2026-04-26 16:37 | -0.67225 | 35.17378 | 22921 ft | 395 kts | 129° |
| 2026-04-26 16:37 | -0.69041 | 35.19526 | 23061 ft | 401 kts | 129° |
| 2026-04-26 16:38 | -0.70885 | 35.21708 | 23073 ft | 401 kts | 129° |
| 2026-04-26 16:38 | -0.72724 | 35.23883 | 23074 ft | 398 kts | 129° |
| 2026-04-26 16:38 | -0.74540 | 35.26031 | 23074 ft | 396 kts | 129° |
| 2026-04-26 16:38 | -0.76370 | 35.28196 | 23076 ft | 399 kts | 129° |
| 2026-04-26 16:39 | -0.78213 | 35.30378 | 23077 ft | 408 kts | 129° |
| 2026-04-26 16:39 | -0.80117 | 35.32632 | 23074 ft | 417 kts | 129° |
| 2026-04-26 16:39 | -0.82024 | 35.34930 | 23073 ft | 424 kts | 127° |
| 2026-04-26 16:39 | -0.83780 | 35.37427 | 23073 ft | 431 kts | 119° |
| 2026-04-26 16:40 | -0.85244 | 35.40125 | 23074 ft | 436 kts | 115° |
| 2026-04-26 16:40 | -0.86655 | 35.42912 | 23073 ft | 442 kts | 115° |
| 2026-04-26 16:40 | -0.88109 | 35.45718 | 23073 ft | 448 kts | 116° |
| 2026-04-26 16:40 | -0.89590 | 35.48560 | 23073 ft | 453 kts | 116° |
| 2026-04-26 16:41 | -0.91066 | 35.51413 | 23074 ft | 458 kts | 116° |
| 2026-04-26 16:41 | -0.92567 | 35.54330 | 23074 ft | 462 kts | 116° |
| 2026-04-26 16:41 | -0.94075 | 35.57264 | 23073 ft | 466 kts | 116° |
| 2026-04-26 16:41 | -0.95586 | 35.60207 | 23074 ft | 469 kts | 116° |
| 2026-04-26 16:42 | -0.97105 | 35.63166 | 23090 ft | 469 kts | 116° |
| 2026-04-26 16:42 | -0.98620 | 35.66121 | 23210 ft | 469 kts | 115° |
| 2026-04-26 16:42 | -1.00142 | 35.69091 | 23210 ft | 470 kts | 115° |
| 2026-04-26 16:42 | -1.01660 | 35.72052 | 23209 ft | 470 kts | 115° |
| 2026-04-26 16:43 | -1.03182 | 35.75024 | 23209 ft | 470 kts | 115° |
| 2026-04-26 16:43 | -1.04713 | 35.78015 | 23209 ft | 470 kts | 115° |
| 2026-04-26 16:43 | -1.06220 | 35.80957 | 23209 ft | 470 kts | 115° |
| 2026-04-26 16:43 | -1.07733 | 35.83914 | 23209 ft | 470 kts | 115° |
| 2026-04-26 16:44 | -1.09270 | 35.86917 | 23209 ft | 470 kts | 115° |
| 2026-04-26 16:44 | -1.10780 | 35.89870 | 23209 ft | 470 kts | 115° |
| 2026-04-26 16:44 | -1.12309 | 35.92857 | 23209 ft | 470 kts | 115° |
| 2026-04-26 16:44 | -1.13817 | 35.95806 | 23208 ft | 469 kts | 115° |
| 2026-04-26 16:45 | -1.15314 | 35.98729 | 23190 ft | 452 kts | 115° |
| 2026-04-26 16:45 | -1.16723 | 36.01475 | 23209 ft | 419 kts | 115° |
| 2026-04-26 16:45 | -1.18041 | 36.04046 | 23153 ft | 394 kts | 115° |
| 2026-04-26 16:45 | -1.19303 | 36.06516 | 22681 ft | 389 kts | 115° |
| 2026-04-26 16:46 | -1.20545 | 36.08949 | 22136 ft | 385 kts | 115° |
| 2026-04-26 16:46 | -1.21784 | 36.11372 | 21503 ft | 385 kts | 115° |
| 2026-04-26 16:46 | -1.23017 | 36.13786 | 20767 ft | 386 kts | 115° |
| 2026-04-26 16:46 | -1.24276 | 36.16249 | 20021 ft | 387 kts | 115° |
| 2026-04-26 16:47 | -1.25524 | 36.18689 | 19280 ft | 387 kts | 115° |
| 2026-04-26 16:47 | -1.26757 | 36.21101 | 18547 ft | 387 kts | 115° |
| 2026-04-26 16:47 | -1.28010 | 36.23552 | 17800 ft | 386 kts | 115° |
| 2026-04-26 16:47 | -1.29258 | 36.25991 | 17055 ft | 385 kts | 115° |
| 2026-04-26 16:48 | -1.30490 | 36.28401 | 16315 ft | 383 kts | 115° |
| 2026-04-26 16:48 | -1.31719 | 36.30804 | 15551 ft | 374 kts | 115° |
| 2026-04-26 16:48 | -1.32916 | 36.33141 | 14808 ft | 360 kts | 115° |
| 2026-04-26 16:48 | -1.34016 | 36.35360 | 14074 ft | 348 kts | 112° |
| 2026-04-26 16:49 | -1.34832 | 36.37653 | 13327 ft | 336 kts | 103° |
| 2026-04-26 16:49 | -1.35228 | 36.39941 | 12592 ft | 327 kts | 94° |
| 2026-04-26 16:49 | -1.35369 | 36.42240 | 11845 ft | 319 kts | 92° |
| 2026-04-26 16:49 | -1.35517 | 36.44471 | 11103 ft | 314 kts | 93° |
| 2026-04-26 16:50 | -1.35670 | 36.46649 | 10367 ft | 309 kts | 93° |
| 2026-04-26 16:50 | -1.35813 | 36.48827 | 9621 ft | 305 kts | 93° |
| 2026-04-26 16:50 | -1.35952 | 36.50973 | 8878 ft | 301 kts | 93° |
| 2026-04-26 16:50 | -1.36087 | 36.53079 | 8328 ft | 292 kts | 93° |
| 2026-04-26 16:51 | -1.36216 | 36.55095 | 7892 ft | 280 kts | 93° |
| 2026-04-26 16:51 | -1.36339 | 36.57010 | 7939 ft | 251 kts | 93° |
| 2026-04-26 16:51 | -1.36446 | 36.58693 | 8129 ft | 228 kts | 93° |
| 2026-04-26 16:51 | -1.36549 | 36.60327 | 8321 ft | 237 kts | 93° |
| 2026-04-26 16:52 | -1.36656 | 36.62007 | 8319 ft | 232 kts | 93° |
| 2026-04-26 16:52 | -1.36726 | 36.63099 | 8318 ft | 232 kts | 93° |
| 2026-04-26 16:52 | -1.36863 | 36.65262 | 8328 ft | 221 kts | 93° |
| 2026-04-26 16:52 | -1.36963 | 36.66838 | 8259 ft | 223 kts | 93° |
| 2026-04-26 16:53 | -1.37063 | 36.68419 | 8143 ft | 221 kts | 93° |
| 2026-04-26 16:53 | -1.37162 | 36.69967 | 8030 ft | 221 kts | 93° |
| 2026-04-26 16:53 | -1.37261 | 36.71532 | 7913 ft | 214 kts | 93° |
| 2026-04-26 16:53 | -1.37357 | 36.73041 | 7826 ft | 214 kts | 93° |
| 2026-04-26 16:54 | -1.37453 | 36.74558 | 7725 ft | 214 kts | 93° |
| 2026-04-26 16:54 | -1.37549 | 36.76067 | 7656 ft | 212 kts | 93° |
| 2026-04-26 16:54 | -1.37614 | 36.77087 | 7613 ft | 213 kts | 93° |
| 2026-04-26 16:54 | -1.37741 | 36.79104 | 7528 ft | 214 kts | 93° |
| 2026-04-26 16:55 | -1.37837 | 36.80615 | 7463 ft | 214 kts | 93° |
| 2026-04-26 16:55 | -1.37934 | 36.82138 | 7415 ft | 210 kts | 93° |
| 2026-04-26 16:55 | -1.38023 | 36.83561 | 7410 ft | 188 kts | 91° |
| 2026-04-26 16:55 | -1.37786 | 36.84762 | 7411 ft | 166 kts | 55° |
| 2026-04-26 16:56 | -1.36378 | 36.86681 | 7358 ft | 170 kts | 54° |
| 2026-04-26 16:56 | -1.35893 | 36.87348 | 7073 ft | 173 kts | 53° |